If you wish to contribute or participate in the discussions about articles you are invited to join SKYbrary as a registered user

 Actions

Cristiano Ronaldo International Airport

From SKYbrary Wiki

LPMA
Airport
ICAO: LPMA – IATA: FNC
Summary
Name Cristiano Ronaldo International Airport
Region Northern Atlantic
Territory Portugal PT.gif
Location Santa Catarina, Região Autónoma da Madeira
Serving Funchal
Elevation 58.522 m
192 ft
192 ft58.522 m
Coordinates 32° 41' 52.01" N, 16° 46' 27.98" W
Runways
Designator Length Width Surface ROPS
5/23 2777 m9,110.892 ft
45 m147.638 ft
ASP yes/yes


METAR
Observation LPMA 221930Z 33007KT 290V010 9999 FEW016 19/12 Q1020
Station Aeroporto Da Madeira
Date/Time 22 October 2020 19:30:00
Wind direction 330°
Wind speed 07 kts
Lowest cloud amount few clouds
Temperature 19°C
Dew point 12°C
Humidity 63%
QNH 1020 hPa
Weather condition n/a

CFIT
Tag(s) Runway Visual Perspective
RE
Tag(s) Crosswind Landings
WX
Tag(s) Low Level Turbulence

Cristiano Ronaldo International Airport, Madeira, commonly known as Madeira Airport or Funchal Airport , is an international airport in the civil parish of Santa Cruz in the Portuguese archipelago and autonomous region of Madeira.

Climatology

Temperate mediterranean climate (Köppen climate classification Csb)

Maps

Terrain

Loading map...

Airport Layout

Loading map...


Accidents & Serious Incidents at or in vicinity of LPMA

None on SKYbrary